メインページ
METAR-TAF:

METAR-TAF

空港 :

グラン・カナリア空港

グラン・カナリア島, スペイン

緯度: 27-56N, 経度: 015-23W, 海抜: 23m

現時点の気象観測

当レポートは28分前の06:00(UTC)に作成
変向風 2kt
気温 18°C
湿度 77%
気圧 1010 hPa
視程10km以上
高度2000ftの雲はほとんどない

METAR: GCLP 040600Z VRB02KT 9999 FEW020 18/14 Q1010 NOSIG

時間: 07:28 (06:28 UTC)

予報

当レポートは4時間28分前の02:00(UTC)に作成
予報は04日の 03時(UTC)から 05日の 03時(UTC)まで有効
西の風 5kt
視程10km以上
高度2500ftの千切れ雲あり
04日の 11時(UTC)から 04日の 13時(UTC)まで徐々に
北/北東の風 13kt
04日の 19時(UTC)から 04日の 21時(UTC)まで徐々に
西の風 5kt

TAF: GCLP 040200Z 0403/0503 27005KT 9999 BKN025 TX23/0414Z TN17/0406Z BECMG 0411/0413 02013KT BECMG 0419/0421 26005KT

4,000以上の空港の気象観測と天気予報(METAR報とTAF報)

利用可能な観測所は地図上に黄色い丸と赤い丸で示す。

丸の上にカーソルを重ねると観測所名を参照できる。

次にクリックすると気象観測と天気予報を参照できる。

マップの切り替え:黒色「×」印の緑ボタンをクリックして拡大、「-」印の緑ボタンをクリックして縮小、緑色の三角印をクリックして隣りの地図に切り替え


METAR-TAF: